sensor_id;sensor_type;location;lat;lon;timestamp;P1;durP1;ratioP1;P2;durP2;ratioP2
45011;SDS011;63444;48.148;11.542;2023-04-03T00:00:39;6.23;;;5.63;;
45011;SDS011;63444;48.148;11.542;2023-04-03T00:03:05;6.93;;;5.97;;
45011;SDS011;63444;48.148;11.542;2023-04-03T00:05:30;7.40;;;5.60;;
45011;SDS011;63444;48.148;11.542;2023-04-03T00:07:56;6.43;;;5.83;;
45011;SDS011;63444;48.148;11.542;2023-04-03T00:10:21;6.77;;;5.40;;
45011;SDS011;63444;48.148;11.542;2023-04-03T00:12:47;7.03;;;6.33;;
45011;SDS011;63444;48.148;11.542;2023-04-03T00:15:13;6.67;;;5.97;;
45011;SDS011;63444;48.148;11.542;2023-04-03T00:17:38;7.30;;;5.70;;
45011;SDS011;63444;48.148;11.542;2023-04-03T00:20:04;6.20;;;5.33;;
45011;SDS011;63444;48.148;11.542;2023-04-03T00:22:30;6.53;;;5.87;;
45011;SDS011;63444;48.148;11.542;2023-04-03T00:24:56;6.30;;;5.67;;
45011;SDS011;63444;48.148;11.542;2023-04-03T00:27:22;7.17;;;5.77;;
45011;SDS011;63444;48.148;11.542;2023-04-03T00:29:47;6.10;;;5.23;;
45011;SDS011;63444;48.148;11.542;2023-04-03T00:32:13;6.37;;;5.77;;
45011;SDS011;63444;48.148;11.542;2023-04-03T00:34:38;7.40;;;5.20;;
45011;SDS011;63444;48.148;11.542;2023-04-03T00:37:04;5.83;;;5.17;;
45011;SDS011;63444;48.148;11.542;2023-04-03T00:39:29;5.77;;;5.10;;
45011;SDS011;63444;48.148;11.542;2023-04-03T00:41:55;6.50;;;5.53;;
45011;SDS011;63444;48.148;11.542;2023-04-03T00:44:22;5.47;;;4.70;;
45011;SDS011;63444;48.148;11.542;2023-04-03T00:47:09;5.57;;;5.07;;
45011;SDS011;63444;48.148;11.542;2023-04-03T00:49:39;5.60;;;4.93;;
45011;SDS011;63444;48.148;11.542;2023-04-03T00:52:09;6.10;;;5.37;;
45011;SDS011;63444;48.148;11.542;2023-04-03T00:54:38;6.07;;;5.47;;
45011;SDS011;63444;48.148;11.542;2023-04-03T00:57:05;6.10;;;5.43;;
45011;SDS011;63444;48.148;11.542;2023-04-03T00:59:33;6.63;;;5.60;;
45011;SDS011;63444;48.148;11.542;2023-04-03T01:02:05;6.03;;;5.47;;
45011;SDS011;63444;48.148;11.542;2023-04-03T01:04:32;7.03;;;5.50;;
45011;SDS011;63444;48.148;11.542;2023-04-03T01:09:36;6.47;;;5.30;;
45011;SDS011;63444;48.148;11.542;2023-04-03T01:12:13;5.90;;;5.30;;
45011;SDS011;63444;48.148;11.542;2023-04-03T01:14:43;6.30;;;5.30;;
45011;SDS011;63444;48.148;11.542;2023-04-03T01:25:28;5.73;;;4.97;;
45011;SDS011;63444;48.148;11.542;2023-04-03T01:27:54;7.20;;;5.37;;
45011;SDS011;63444;48.148;11.542;2023-04-03T01:30:20;6.37;;;5.13;;
45011;SDS011;63444;48.148;11.542;2023-04-03T01:32:49;6.30;;;5.57;;
45011;SDS011;63444;48.148;11.542;2023-04-03T01:35:14;5.00;;;4.50;;
45011;SDS011;63444;48.148;11.542;2023-04-03T01:37:40;5.07;;;4.63;;
45011;SDS011;63444;48.148;11.542;2023-04-03T01:40:05;5.00;;;4.50;;
45011;SDS011;63444;48.148;11.542;2023-04-03T01:42:32;5.23;;;4.70;;
45011;SDS011;63444;48.148;11.542;2023-04-03T01:44:57;5.73;;;5.03;;
45011;SDS011;63444;48.148;11.542;2023-04-03T01:47:24;7.00;;;5.03;;
45011;SDS011;63444;48.148;11.542;2023-04-03T01:49:50;5.20;;;4.67;;
45011;SDS011;63444;48.148;11.542;2023-04-03T01:52:15;5.20;;;4.70;;
45011;SDS011;63444;48.148;11.542;2023-04-03T01:54:42;5.43;;;4.93;;
45011;SDS011;63444;48.148;11.542;2023-04-03T01:57:10;4.80;;;4.40;;
45011;SDS011;63444;48.148;11.542;2023-04-03T01:59:37;5.37;;;4.70;;
45011;SDS011;63444;48.148;11.542;2023-04-03T02:02:06;5.57;;;4.70;;
45011;SDS011;63444;48.148;11.542;2023-04-03T02:04:32;6.70;;;4.87;;
45011;SDS011;63444;48.148;11.542;2023-04-03T02:06:58;5.10;;;4.60;;
45011;SDS011;63444;48.148;11.542;2023-04-03T02:09:24;5.33;;;4.80;;
45011;SDS011;63444;48.148;11.542;2023-04-03T02:11:51;7.10;;;5.37;;
45011;SDS011;63444;48.148;11.542;2023-04-03T02:14:17;5.20;;;4.70;;
45011;SDS011;63444;48.148;11.542;2023-04-03T02:16:43;5.30;;;4.80;;
45011;SDS011;63444;48.148;11.542;2023-04-03T02:19:09;5.10;;;4.60;;
45011;SDS011;63444;48.148;11.542;2023-04-03T02:21:34;5.13;;;4.30;;
45011;SDS011;63444;48.148;11.542;2023-04-03T02:24:00;4.70;;;4.30;;
45011;SDS011;63444;48.148;11.542;2023-04-03T02:26:26;4.80;;;4.30;;
45011;SDS011;63444;48.148;11.542;2023-04-03T02:28:53;5.03;;;4.40;;
45011;SDS011;63444;48.148;11.542;2023-04-03T02:31:20;4.70;;;4.30;;
45011;SDS011;63444;48.148;11.542;2023-04-03T02:33:46;4.60;;;4.03;;
45011;SDS011;63444;48.148;11.542;2023-04-03T02:36:11;4.60;;;4.20;;
45011;SDS011;63444;48.148;11.542;2023-04-03T02:38:38;5.03;;;4.53;;
45011;SDS011;63444;48.148;11.542;2023-04-03T02:41:05;4.77;;;4.37;;
45011;SDS011;63444;48.148;11.542;2023-04-03T02:43:33;4.40;;;4.00;;
45011;SDS011;63444;48.148;11.542;2023-04-03T02:46:00;4.10;;;3.73;;
45011;SDS011;63444;48.148;11.542;2023-04-03T02:48:26;5.30;;;4.00;;
45011;SDS011;63444;48.148;11.542;2023-04-03T02:50:52;4.87;;;3.97;;
45011;SDS011;63444;48.148;11.542;2023-04-03T02:53:18;5.00;;;4.03;;
45011;SDS011;63444;48.148;11.542;2023-04-03T02:55:44;4.83;;;3.90;;
45011;SDS011;63444;48.148;11.542;2023-04-03T02:58:10;4.40;;;4.00;;
45011;SDS011;63444;48.148;11.542;2023-04-03T03:00:36;5.10;;;4.10;;
45011;SDS011;63444;48.148;11.542;2023-04-03T03:03:02;3.90;;;3.60;;
45011;SDS011;63444;48.148;11.542;2023-04-03T03:05:27;3.67;;;3.37;;
45011;SDS011;63444;48.148;11.542;2023-04-03T03:07:54;4.97;;;4.47;;
45011;SDS011;63444;48.148;11.542;2023-04-03T03:10:22;4.17;;;3.83;;
45011;SDS011;63444;48.148;11.542;2023-04-03T03:12:48;5.17;;;4.40;;
45011;SDS011;63444;48.148;11.542;2023-04-03T03:15:14;4.83;;;3.90;;
45011;SDS011;63444;48.148;11.542;2023-04-03T03:17:41;4.13;;;3.60;;
45011;SDS011;63444;48.148;11.542;2023-04-03T03:20:06;4.37;;;3.90;;
45011;SDS011;63444;48.148;11.542;2023-04-03T03:22:34;4.20;;;3.67;;
45011;SDS011;63444;48.148;11.542;2023-04-03T03:25:01;4.30;;;3.23;;
45011;SDS011;63444;48.148;11.542;2023-04-03T03:27:28;3.73;;;3.37;;
45011;SDS011;63444;48.148;11.542;2023-04-03T03:29:53;3.77;;;3.23;;
45011;SDS011;63444;48.148;11.542;2023-04-03T03:32:22;4.33;;;3.43;;
45011;SDS011;63444;48.148;11.542;2023-04-03T03:34:48;4.10;;;3.40;;
45011;SDS011;63444;48.148;11.542;2023-04-03T03:37:13;3.73;;;3.33;;
45011;SDS011;63444;48.148;11.542;2023-04-03T03:39:40;3.70;;;3.37;;
45011;SDS011;63444;48.148;11.542;2023-04-03T03:42:07;4.37;;;3.70;;
45011;SDS011;63444;48.148;11.542;2023-04-03T03:44:32;4.03;;;3.60;;
45011;SDS011;63444;48.148;11.542;2023-04-03T03:46:58;4.20;;;3.30;;
45011;SDS011;63444;48.148;11.542;2023-04-03T03:49:24;3.37;;;2.90;;
45011;SDS011;63444;48.148;11.542;2023-04-03T03:51:50;3.23;;;2.93;;
45011;SDS011;63444;48.148;11.542;2023-04-03T03:54:17;4.03;;;3.10;;
45011;SDS011;63444;48.148;11.542;2023-04-03T03:56:42;3.97;;;3.03;;
45011;SDS011;63444;48.148;11.542;2023-04-03T03:59:08;3.50;;;3.00;;
45011;SDS011;63444;48.148;11.542;2023-04-03T04:01:36;3.63;;;3.13;;
45011;SDS011;63444;48.148;11.542;2023-04-03T04:04:01;3.80;;;3.50;;
45011;SDS011;63444;48.148;11.542;2023-04-03T04:06:27;3.37;;;2.90;;
45011;SDS011;63444;48.148;11.542;2023-04-03T04:08:52;3.77;;;3.43;;
45011;SDS011;63444;48.148;11.542;2023-04-03T04:11:18;3.80;;;2.70;;
45011;SDS011;63444;48.148;11.542;2023-04-03T04:13:46;3.37;;;3.07;;
45011;SDS011;63444;48.148;11.542;2023-04-03T04:16:16;2.80;;;2.60;;
45011;SDS011;63444;48.148;11.542;2023-04-03T04:18:42;2.87;;;2.67;;
45011;SDS011;63444;48.148;11.542;2023-04-03T04:21:09;4.00;;;3.10;;
45011;SDS011;63444;48.148;11.542;2023-04-03T04:23:35;4.47;;;3.30;;
45011;SDS011;63444;48.148;11.542;2023-04-03T04:26:00;3.67;;;3.17;;
45011;SDS011;63444;48.148;11.542;2023-04-03T04:28:26;3.50;;;3.17;;
45011;SDS011;63444;48.148;11.542;2023-04-03T04:30:52;3.33;;;2.90;;
45011;SDS011;63444;48.148;11.542;2023-04-03T04:33:18;3.37;;;2.80;;
45011;SDS011;63444;48.148;11.542;2023-04-03T04:35:46;4.23;;;3.20;;
45011;SDS011;63444;48.148;11.542;2023-04-03T04:38:13;3.33;;;3.03;;
45011;SDS011;63444;48.148;11.542;2023-04-03T04:40:39;4.33;;;2.97;;
45011;SDS011;63444;48.148;11.542;2023-04-03T04:43:05;3.40;;;3.10;;
45011;SDS011;63444;48.148;11.542;2023-04-03T04:45:31;3.43;;;3.00;;
45011;SDS011;63444;48.148;11.542;2023-04-03T04:47:56;4.13;;;3.23;;
45011;SDS011;63444;48.148;11.542;2023-04-03T04:50:22;3.83;;;3.03;;
45011;SDS011;63444;48.148;11.542;2023-04-03T04:52:49;3.47;;;3.10;;
45011;SDS011;63444;48.148;11.542;2023-04-03T04:55:15;4.87;;;3.43;;
45011;SDS011;63444;48.148;11.542;2023-04-03T04:57:40;3.50;;;3.20;;
45011;SDS011;63444;48.148;11.542;2023-04-03T05:00:06;6.07;;;3.77;;
45011;SDS011;63444;48.148;11.542;2023-04-03T05:02:34;3.50;;;3.07;;
45011;SDS011;63444;48.148;11.542;2023-04-03T05:05:00;4.67;;;3.37;;
45011;SDS011;63444;48.148;11.542;2023-04-03T05:07:26;4.23;;;3.20;;
45011;SDS011;63444;48.148;11.542;2023-04-03T05:09:51;4.10;;;3.37;;
45011;SDS011;63444;48.148;11.542;2023-04-03T05:12:18;4.13;;;3.20;;
45011;SDS011;63444;48.148;11.542;2023-04-03T05:14:45;3.93;;;3.47;;
45011;SDS011;63444;48.148;11.542;2023-04-03T05:17:11;3.80;;;3.40;;
45011;SDS011;63444;48.148;11.542;2023-04-03T05:19:38;3.60;;;3.30;;
45011;SDS011;63444;48.148;11.542;2023-04-03T05:22:09;3.70;;;3.20;;
45011;SDS011;63444;48.148;11.542;2023-04-03T05:24:40;5.60;;;3.20;;
45011;SDS011;63444;48.148;11.542;2023-04-03T05:27:05;4.90;;;3.20;;
45011;SDS011;63444;48.148;11.542;2023-04-03T05:29:31;4.03;;;3.40;;
45011;SDS011;63444;48.148;11.542;2023-04-03T05:31:57;5.40;;;3.63;;
45011;SDS011;63444;48.148;11.542;2023-04-03T05:34:24;3.80;;;3.50;;
45011;SDS011;63444;48.148;11.542;2023-04-03T05:36:50;4.93;;;3.30;;
45011;SDS011;63444;48.148;11.542;2023-04-03T05:39:17;3.20;;;2.90;;
45011;SDS011;63444;48.148;11.542;2023-04-03T05:41:45;4.73;;;3.30;;
45011;SDS011;63444;48.148;11.542;2023-04-03T05:44:10;4.33;;;3.67;;
45011;SDS011;63444;48.148;11.542;2023-04-03T05:46:39;4.67;;;3.33;;
45011;SDS011;63444;48.148;11.542;2023-04-03T05:49:09;4.73;;;3.50;;
45011;SDS011;63444;48.148;11.542;2023-04-03T05:51:35;5.33;;;4.20;;
45011;SDS011;63444;48.148;11.542;2023-04-03T05:54:16;4.93;;;3.30;;
45011;SDS011;63444;48.148;11.542;2023-04-03T05:56:49;4.27;;;3.77;;
45011;SDS011;63444;48.148;11.542;2023-04-03T05:59:15;3.50;;;3.20;;
45011;SDS011;63444;48.148;11.542;2023-04-03T06:01:41;4.73;;;4.00;;
45011;SDS011;63444;48.148;11.542;2023-04-03T06:04:07;4.03;;;3.63;;
45011;SDS011;63444;48.148;11.542;2023-04-03T06:09:20;4.97;;;3.63;;
45011;SDS011;63444;48.148;11.542;2023-04-03T06:11:48;4.37;;;3.70;;
45011;SDS011;63444;48.148;11.542;2023-04-03T06:14:16;5.50;;;3.73;;
45011;SDS011;63444;48.148;11.542;2023-04-03T06:16:41;4.23;;;3.50;;
45011;SDS011;63444;48.148;11.542;2023-04-03T06:19:08;5.37;;;3.40;;
45011;SDS011;63444;48.148;11.542;2023-04-03T06:21:35;6.00;;;3.33;;
45011;SDS011;63444;48.148;11.542;2023-04-03T06:24:03;5.27;;;3.87;;
45011;SDS011;63444;48.148;11.542;2023-04-03T06:26:29;4.67;;;3.90;;
45011;SDS011;63444;48.148;11.542;2023-04-03T06:28:55;6.07;;;3.63;;
45011;SDS011;63444;48.148;11.542;2023-04-03T06:31:21;3.63;;;3.30;;
45011;SDS011;63444;48.148;11.542;2023-04-03T06:33:48;6.13;;;3.90;;
45011;SDS011;63444;48.148;11.542;2023-04-03T06:36:13;4.27;;;3.37;;
45011;SDS011;63444;48.148;11.542;2023-04-03T06:38:39;5.87;;;4.27;;
45011;SDS011;63444;48.148;11.542;2023-04-03T06:41:04;4.23;;;3.60;;
45011;SDS011;63444;48.148;11.542;2023-04-03T06:43:31;5.27;;;3.70;;
45011;SDS011;63444;48.148;11.542;2023-04-03T06:45:57;4.97;;;3.40;;
45011;SDS011;63444;48.148;11.542;2023-04-03T06:48:22;3.40;;;3.10;;
45011;SDS011;63444;48.148;11.542;2023-04-03T06:50:48;4.13;;;3.60;;
45011;SDS011;63444;48.148;11.542;2023-04-03T06:53:14;4.20;;;3.33;;
45011;SDS011;63444;48.148;11.542;2023-04-03T06:55:39;5.47;;;3.40;;
45011;SDS011;63444;48.148;11.542;2023-04-03T06:58:06;4.20;;;3.40;;
45011;SDS011;63444;48.148;11.542;2023-04-03T07:00:32;3.60;;;3.23;;
45011;SDS011;63444;48.148;11.542;2023-04-03T07:02:59;4.47;;;3.70;;
45011;SDS011;63444;48.148;11.542;2023-04-03T07:05:24;4.67;;;3.47;;
45011;SDS011;63444;48.148;11.542;2023-04-03T07:07:51;5.30;;;4.03;;
45011;SDS011;63444;48.148;11.542;2023-04-03T07:10:17;4.90;;;3.80;;
45011;SDS011;63444;48.148;11.542;2023-04-03T07:12:43;4.23;;;3.37;;
45011;SDS011;63444;48.148;11.542;2023-04-03T07:15:09;5.87;;;3.50;;
45011;SDS011;63444;48.148;11.542;2023-04-03T07:17:36;5.93;;;3.90;;
45011;SDS011;63444;48.148;11.542;2023-04-03T07:20:02;4.33;;;3.57;;
45011;SDS011;63444;48.148;11.542;2023-04-03T07:22:29;5.20;;;3.50;;
45011;SDS011;63444;48.148;11.542;2023-04-03T07:24:55;4.40;;;4.00;;
45011;SDS011;63444;48.148;11.542;2023-04-03T07:27:24;4.63;;;3.23;;
45011;SDS011;63444;48.148;11.542;2023-04-03T07:29:50;4.27;;;3.77;;
45011;SDS011;63444;48.148;11.542;2023-04-03T07:32:17;4.67;;;4.00;;
45011;SDS011;63444;48.148;11.542;2023-04-03T07:34:43;4.93;;;3.47;;
45011;SDS011;63444;48.148;11.542;2023-04-03T07:37:09;3.80;;;3.20;;
45011;SDS011;63444;48.148;11.542;2023-04-03T07:39:35;4.00;;;3.30;;
45011;SDS011;63444;48.148;11.542;2023-04-03T07:42:02;4.53;;;3.90;;
45011;SDS011;63444;48.148;11.542;2023-04-03T07:44:28;6.13;;;4.00;;
45011;SDS011;63444;48.148;11.542;2023-04-03T07:46:53;8.33;;;3.97;;
45011;SDS011;63444;48.148;11.542;2023-04-03T07:49:21;5.07;;;3.77;;
45011;SDS011;63444;48.148;11.542;2023-04-03T07:51:50;4.17;;;3.53;;
45011;SDS011;63444;48.148;11.542;2023-04-03T07:54:16;4.07;;;3.43;;
45011;SDS011;63444;48.148;11.542;2023-04-03T07:56:43;8.33;;;3.83;;
45011;SDS011;63444;48.148;11.542;2023-04-03T07:59:09;6.63;;;3.70;;
45011;SDS011;63444;48.148;11.542;2023-04-03T08:01:36;6.47;;;3.50;;
45011;SDS011;63444;48.148;11.542;2023-04-03T08:04:02;4.80;;;3.63;;
45011;SDS011;63444;48.148;11.542;2023-04-03T08:06:28;6.20;;;3.83;;
45011;SDS011;63444;48.148;11.542;2023-04-03T08:08:56;6.23;;;4.20;;
45011;SDS011;63444;48.148;11.542;2023-04-03T08:11:24;5.80;;;3.90;;
45011;SDS011;63444;48.148;11.542;2023-04-03T08:13:52;5.13;;;3.70;;
45011;SDS011;63444;48.148;11.542;2023-04-03T08:16:24;5.67;;;4.77;;
45011;SDS011;63444;48.148;11.542;2023-04-03T08:18:53;6.17;;;4.90;;
45011;SDS011;63444;48.148;11.542;2023-04-03T08:21:20;4.97;;;4.37;;
45011;SDS011;63444;48.148;11.542;2023-04-03T08:23:47;6.10;;;5.20;;
45011;SDS011;63444;48.148;11.542;2023-04-03T08:26:28;6.03;;;4.70;;
45011;SDS011;63444;48.148;11.542;2023-04-03T08:28:57;7.07;;;4.50;;
45011;SDS011;63444;48.148;11.542;2023-04-03T08:31:49;8.97;;;5.37;;
45011;SDS011;63444;48.148;11.542;2023-04-03T08:34:17;6.77;;;4.63;;
45011;SDS011;63444;48.148;11.542;2023-04-03T08:36:44;5.80;;;4.70;;
45011;SDS011;63444;48.148;11.542;2023-04-03T08:39:12;5.63;;;4.33;;
45011;SDS011;63444;48.148;11.542;2023-04-03T08:41:40;5.07;;;4.33;;
45011;SDS011;63444;48.148;11.542;2023-04-03T08:44:17;5.70;;;4.40;;
45011;SDS011;63444;48.148;11.542;2023-04-03T08:50:00;7.07;;;4.90;;
45011;SDS011;63444;48.148;11.542;2023-04-03T08:52:47;4.43;;;4.03;;
45011;SDS011;63444;48.148;11.542;2023-04-03T08:55:26;7.67;;;4.27;;
45011;SDS011;63444;48.148;11.542;2023-04-03T08:58:00;5.73;;;4.47;;
45011;SDS011;63444;48.148;11.542;2023-04-03T09:03:15;5.53;;;4.13;;
45011;SDS011;63444;48.148;11.542;2023-04-03T09:05:55;5.53;;;4.20;;
45011;SDS011;63444;48.148;11.542;2023-04-03T09:08:40;5.53;;;3.97;;
45011;SDS011;63444;48.148;11.542;2023-04-03T09:11:57;4.77;;;3.37;;
45011;SDS011;63444;48.148;11.542;2023-04-03T09:16:54;8.23;;;4.20;;
45011;SDS011;63444;48.148;11.542;2023-04-03T09:19:41;7.47;;;4.43;;
45011;SDS011;63444;48.148;11.542;2023-04-03T09:22:37;7.20;;;4.30;;
45011;SDS011;63444;48.148;11.542;2023-04-03T09:25:12;8.50;;;4.10;;
45011;SDS011;63444;48.148;11.542;2023-04-03T09:27:42;4.80;;;3.90;;
45011;SDS011;63444;48.148;11.542;2023-04-03T09:30:15;3.93;;;3.60;;
45011;SDS011;63444;48.148;11.542;2023-04-03T09:32:44;3.87;;;3.30;;
45011;SDS011;63444;48.148;11.542;2023-04-03T09:35:24;3.73;;;3.43;;
45011;SDS011;63444;48.148;11.542;2023-04-03T09:37:53;4.00;;;3.67;;
45011;SDS011;63444;48.148;11.542;2023-04-03T09:42:50;4.43;;;3.60;;
45011;SDS011;63444;48.148;11.542;2023-04-03T09:45:34;7.33;;;4.97;;
45011;SDS011;63444;48.148;11.542;2023-04-03T09:50:52;6.17;;;4.47;;
45011;SDS011;63444;48.148;11.542;2023-04-03T09:53:38;4.53;;;3.70;;
45011;SDS011;63444;48.148;11.542;2023-04-03T09:58:40;6.20;;;3.80;;
45011;SDS011;63444;48.148;11.542;2023-04-03T10:01:20;4.00;;;3.60;;
45011;SDS011;63444;48.148;11.542;2023-04-03T10:06:54;5.53;;;3.60;;
45011;SDS011;63444;48.148;11.542;2023-04-03T10:09:24;3.77;;;2.97;;
45011;SDS011;63444;48.148;11.542;2023-04-03T10:12:06;6.47;;;4.00;;
45011;SDS011;63444;48.148;11.542;2023-04-03T10:14:36;4.80;;;3.53;;
45011;SDS011;63444;48.148;11.542;2023-04-03T10:23:21;4.50;;;3.20;;
45011;SDS011;63444;48.148;11.542;2023-04-03T10:35:10;4.93;;;3.80;;
45011;SDS011;63444;48.148;11.542;2023-04-03T10:38:01;7.43;;;4.30;;
45011;SDS011;63444;48.148;11.542;2023-04-03T10:46:41;4.53;;;3.00;;
45011;SDS011;63444;48.148;11.542;2023-04-03T10:51:48;4.23;;;2.87;;
45011;SDS011;63444;48.148;11.542;2023-04-03T10:54:24;4.43;;;3.20;;
45011;SDS011;63444;48.148;11.542;2023-04-03T10:57:24;3.13;;;2.80;;
45011;SDS011;63444;48.148;11.542;2023-04-03T10:59:50;4.43;;;3.07;;
45011;SDS011;63444;48.148;11.542;2023-04-03T11:05:18;4.37;;;3.30;;
45011;SDS011;63444;48.148;11.542;2023-04-03T11:07:47;6.00;;;3.27;;
45011;SDS011;63444;48.148;11.542;2023-04-03T11:13:08;6.47;;;3.20;;
45011;SDS011;63444;48.148;11.542;2023-04-03T11:15:54;4.67;;;3.47;;
45011;SDS011;63444;48.148;11.542;2023-04-03T11:18:25;3.73;;;2.87;;
45011;SDS011;63444;48.148;11.542;2023-04-03T11:21:00;3.33;;;2.83;;
45011;SDS011;63444;48.148;11.542;2023-04-03T11:23:34;5.23;;;3.63;;
45011;SDS011;63444;48.148;11.542;2023-04-03T11:26:21;4.73;;;3.30;;
45011;SDS011;63444;48.148;11.542;2023-04-03T11:28:58;6.43;;;3.20;;
45011;SDS011;63444;48.148;11.542;2023-04-03T11:36:33;5.97;;;3.73;;
45011;SDS011;63444;48.148;11.542;2023-04-03T11:39:17;4.83;;;3.30;;
45011;SDS011;63444;48.148;11.542;2023-04-03T11:41:53;4.07;;;3.20;;
45011;SDS011;63444;48.148;11.542;2023-04-03T11:44:27;5.60;;;3.23;;
45011;SDS011;63444;48.148;11.542;2023-04-03T11:46:57;4.63;;;3.43;;
45011;SDS011;63444;48.148;11.542;2023-04-03T11:58:03;4.63;;;2.40;;
45011;SDS011;63444;48.148;11.542;2023-04-03T12:04:12;5.30;;;2.50;;
45011;SDS011;63444;48.148;11.542;2023-04-03T12:24:28;2.93;;;2.27;;
45011;SDS011;63444;48.148;11.542;2023-04-03T12:32:36;3.10;;;2.27;;
45011;SDS011;63444;48.148;11.542;2023-04-03T12:46:36;2.10;;;1.60;;
45011;SDS011;63444;48.148;11.542;2023-04-03T12:49:35;2.70;;;2.20;;
45011;SDS011;63444;48.148;11.542;2023-04-03T12:52:06;2.37;;;2.10;;
45011;SDS011;63444;48.148;11.542;2023-04-03T12:54:56;3.13;;;2.33;;
45011;SDS011;63444;48.148;11.542;2023-04-03T12:57:24;2.10;;;1.80;;
45011;SDS011;63444;48.148;11.542;2023-04-03T12:59:51;1.97;;;1.77;;
45011;SDS011;63444;48.148;11.542;2023-04-03T13:02:20;3.73;;;2.00;;
45011;SDS011;63444;48.148;11.542;2023-04-03T13:04:49;2.70;;;1.90;;
45011;SDS011;63444;48.148;11.542;2023-04-03T13:07:23;2.70;;;1.97;;
45011;SDS011;63444;48.148;11.542;2023-04-03T13:09:57;4.30;;;2.20;;
45011;SDS011;63444;48.148;11.542;2023-04-03T13:12:29;3.00;;;2.10;;
45011;SDS011;63444;48.148;11.542;2023-04-03T13:14:56;3.33;;;2.10;;
45011;SDS011;63444;48.148;11.542;2023-04-03T13:17:24;3.00;;;2.00;;
45011;SDS011;63444;48.148;11.542;2023-04-03T13:19:50;2.20;;;1.97;;
45011;SDS011;63444;48.148;11.542;2023-04-03T13:22:36;2.80;;;2.07;;
45011;SDS011;63444;48.148;11.542;2023-04-03T13:25:09;2.87;;;2.20;;
45011;SDS011;63444;48.148;11.542;2023-04-03T13:27:39;4.40;;;2.40;;
45011;SDS011;63444;48.148;11.542;2023-04-03T13:30:17;4.77;;;2.30;;
45011;SDS011;63444;48.148;11.542;2023-04-03T13:32:45;3.53;;;1.93;;
45011;SDS011;63444;48.148;11.542;2023-04-03T13:38:00;5.63;;;2.53;;
45011;SDS011;63444;48.148;11.542;2023-04-03T13:40:31;4.50;;;2.17;;
45011;SDS011;63444;48.148;11.542;2023-04-03T13:43:14;2.83;;;1.93;;
45011;SDS011;63444;48.148;11.542;2023-04-03T13:48:35;3.20;;;1.90;;
45011;SDS011;63444;48.148;11.542;2023-04-03T13:53:57;3.47;;;2.23;;
45011;SDS011;63444;48.148;11.542;2023-04-03T13:56:33;5.23;;;1.87;;
45011;SDS011;63444;48.148;11.542;2023-04-03T13:59:05;3.73;;;2.10;;
45011;SDS011;63444;48.148;11.542;2023-04-03T14:01:42;3.80;;;2.03;;
45011;SDS011;63444;48.148;11.542;2023-04-03T14:04:25;4.23;;;1.93;;
45011;SDS011;63444;48.148;11.542;2023-04-03T14:06:54;3.27;;;1.80;;
45011;SDS011;63444;48.148;11.542;2023-04-03T14:09:21;3.20;;;2.27;;
45011;SDS011;63444;48.148;11.542;2023-04-03T14:11:50;5.57;;;2.23;;
45011;SDS011;63444;48.148;11.542;2023-04-03T14:14:30;5.23;;;2.33;;
45011;SDS011;63444;48.148;11.542;2023-04-03T14:16:59;4.77;;;1.90;;
45011;SDS011;63444;48.148;11.542;2023-04-03T14:19:29;3.60;;;2.00;;
45011;SDS011;63444;48.148;11.542;2023-04-03T14:21:57;2.83;;;2.03;;
45011;SDS011;63444;48.148;11.542;2023-04-03T14:24:24;3.73;;;1.80;;
45011;SDS011;63444;48.148;11.542;2023-04-03T14:26:50;4.20;;;2.03;;
45011;SDS011;63444;48.148;11.542;2023-04-03T14:29:17;2.63;;;1.80;;
45011;SDS011;63444;48.148;11.542;2023-04-03T14:31:46;3.87;;;2.37;;
45011;SDS011;63444;48.148;11.542;2023-04-03T14:34:12;3.90;;;2.17;;
45011;SDS011;63444;48.148;11.542;2023-04-03T14:36:39;2.63;;;1.70;;
45011;SDS011;63444;48.148;11.542;2023-04-03T14:39:10;2.20;;;1.87;;
45011;SDS011;63444;48.148;11.542;2023-04-03T14:41:40;3.93;;;1.90;;
45011;SDS011;63444;48.148;11.542;2023-04-03T14:44:06;2.40;;;1.77;;
45011;SDS011;63444;48.148;11.542;2023-04-03T14:46:33;2.30;;;1.70;;
45011;SDS011;63444;48.148;11.542;2023-04-03T14:49:03;3.80;;;1.97;;
45011;SDS011;63444;48.148;11.542;2023-04-03T14:51:37;2.03;;;1.83;;
45011;SDS011;63444;48.148;11.542;2023-04-03T14:54:02;4.03;;;1.70;;
45011;SDS011;63444;48.148;11.542;2023-04-03T14:56:30;4.27;;;1.87;;
45011;SDS011;63444;48.148;11.542;2023-04-03T14:58:56;3.57;;;2.63;;
45011;SDS011;63444;48.148;11.542;2023-04-03T15:01:24;3.43;;;2.70;;
45011;SDS011;63444;48.148;11.542;2023-04-03T15:03:51;2.93;;;1.90;;
45011;SDS011;63444;48.148;11.542;2023-04-03T15:06:16;3.80;;;2.07;;
45011;SDS011;63444;48.148;11.542;2023-04-03T15:08:42;2.07;;;1.87;;
45011;SDS011;63444;48.148;11.542;2023-04-03T15:11:10;2.17;;;1.70;;
45011;SDS011;63444;48.148;11.542;2023-04-03T15:13:36;3.27;;;1.63;;
45011;SDS011;63444;48.148;11.542;2023-04-03T15:16:02;2.87;;;1.53;;
45011;SDS011;63444;48.148;11.542;2023-04-03T15:18:30;2.37;;;1.80;;
45011;SDS011;63444;48.148;11.542;2023-04-03T15:21:00;5.00;;;1.80;;
45011;SDS011;63444;48.148;11.542;2023-04-03T15:23:26;1.93;;;1.60;;
45011;SDS011;63444;48.148;11.542;2023-04-03T15:25:53;2.30;;;1.90;;
45011;SDS011;63444;48.148;11.542;2023-04-03T15:28:35;2.00;;;1.50;;
45011;SDS011;63444;48.148;11.542;2023-04-03T15:31:03;1.57;;;1.43;;
45011;SDS011;63444;48.148;11.542;2023-04-03T15:33:30;2.87;;;1.70;;
45011;SDS011;63444;48.148;11.542;2023-04-03T15:35:57;2.10;;;1.57;;
45011;SDS011;63444;48.148;11.542;2023-04-03T15:38:22;2.13;;;1.80;;
45011;SDS011;63444;48.148;11.542;2023-04-03T15:40:48;2.93;;;1.90;;
45011;SDS011;63444;48.148;11.542;2023-04-03T15:43:14;2.90;;;1.90;;
45011;SDS011;63444;48.148;11.542;2023-04-03T15:45:40;1.93;;;1.70;;
45011;SDS011;63444;48.148;11.542;2023-04-03T15:48:06;2.50;;;1.93;;
45011;SDS011;63444;48.148;11.542;2023-04-03T15:50:33;1.77;;;1.57;;
45011;SDS011;63444;48.148;11.542;2023-04-03T15:52:59;2.13;;;1.60;;
45011;SDS011;63444;48.148;11.542;2023-04-03T15:55:27;2.43;;;1.90;;
45011;SDS011;63444;48.148;11.542;2023-04-03T15:57:54;3.30;;;1.90;;
45011;SDS011;63444;48.148;11.542;2023-04-03T16:00:20;4.13;;;1.90;;
45011;SDS011;63444;48.148;11.542;2023-04-03T16:02:47;1.93;;;1.70;;
45011;SDS011;63444;48.148;11.542;2023-04-03T16:05:17;2.93;;;2.10;;
45011;SDS011;63444;48.148;11.542;2023-04-03T16:07:43;2.60;;;1.90;;
45011;SDS011;63444;48.148;11.542;2023-04-03T16:10:10;3.20;;;2.00;;
45011;SDS011;63444;48.148;11.542;2023-04-03T16:12:38;2.30;;;1.67;;
45011;SDS011;63444;48.148;11.542;2023-04-03T16:15:04;2.43;;;1.80;;
45011;SDS011;63444;48.148;11.542;2023-04-03T16:17:31;2.83;;;2.00;;
45011;SDS011;63444;48.148;11.542;2023-04-03T16:19:57;3.13;;;1.97;;
45011;SDS011;63444;48.148;11.542;2023-04-03T16:22:24;3.90;;;1.77;;
45011;SDS011;63444;48.148;11.542;2023-04-03T16:24:52;2.73;;;1.90;;
45011;SDS011;63444;48.148;11.542;2023-04-03T16:27:18;2.90;;;2.00;;
45011;SDS011;63444;48.148;11.542;2023-04-03T16:29:44;3.37;;;2.00;;
45011;SDS011;63444;48.148;11.542;2023-04-03T16:32:10;3.17;;;1.80;;
45011;SDS011;63444;48.148;11.542;2023-04-03T16:34:37;2.27;;;2.07;;
45011;SDS011;63444;48.148;11.542;2023-04-03T16:37:05;2.90;;;1.80;;
45011;SDS011;63444;48.148;11.542;2023-04-03T16:39:33;2.63;;;2.03;;
45011;SDS011;63444;48.148;11.542;2023-04-03T16:42:00;2.60;;;2.10;;
45011;SDS011;63444;48.148;11.542;2023-04-03T16:44:26;4.37;;;2.17;;
45011;SDS011;63444;48.148;11.542;2023-04-03T16:46:52;3.37;;;2.43;;